sensor_id;sensor_type;location;lat;lon;timestamp;P1;durP1;ratioP1;P2;durP2;ratioP2
21862;SDS011;11096;51.338;12.524;2022-08-01T00:01:30;3.88;;;2.90;;
21862;SDS011;11096;51.338;12.524;2022-08-01T00:03:56;4.13;;;3.20;;
21862;SDS011;11096;51.338;12.524;2022-08-01T00:06:21;5.20;;;3.20;;
21862;SDS011;11096;51.338;12.524;2022-08-01T00:08:47;5.82;;;3.20;;
21862;SDS011;11096;51.338;12.524;2022-08-01T00:11:12;3.67;;;3.30;;
21862;SDS011;11096;51.338;12.524;2022-08-01T00:13:38;7.75;;;3.22;;
21862;SDS011;11096;51.338;12.524;2022-08-01T00:16:04;3.97;;;3.05;;
21862;SDS011;11096;51.338;12.524;2022-08-01T00:18:29;4.65;;;3.35;;
21862;SDS011;11096;51.338;12.524;2022-08-01T00:20:54;4.50;;;3.22;;
21862;SDS011;11096;51.338;12.524;2022-08-01T00:23:20;5.43;;;3.25;;
21862;SDS011;11096;51.338;12.524;2022-08-01T00:25:45;3.17;;;2.88;;
21862;SDS011;11096;51.338;12.524;2022-08-01T00:28:10;5.47;;;3.75;;
21862;SDS011;11096;51.338;12.524;2022-08-01T00:30:36;5.28;;;3.53;;
21862;SDS011;11096;51.338;12.524;2022-08-01T00:33:02;6.30;;;3.45;;
21862;SDS011;11096;51.338;12.524;2022-08-01T00:35:27;4.82;;;3.13;;
21862;SDS011;11096;51.338;12.524;2022-08-01T00:37:53;3.33;;;3.00;;
21862;SDS011;11096;51.338;12.524;2022-08-01T00:40:18;4.85;;;3.63;;
21862;SDS011;11096;51.338;12.524;2022-08-01T00:42:43;6.18;;;3.42;;
21862;SDS011;11096;51.338;12.524;2022-08-01T00:45:09;4.88;;;3.55;;
21862;SDS011;11096;51.338;12.524;2022-08-01T00:47:35;5.32;;;3.50;;
21862;SDS011;11096;51.338;12.524;2022-08-01T00:50:00;4.75;;;3.53;;
21862;SDS011;11096;51.338;12.524;2022-08-01T00:52:28;5.93;;;4.03;;
21862;SDS011;11096;51.338;12.524;2022-08-01T00:54:54;6.00;;;4.00;;
21862;SDS011;11096;51.338;12.524;2022-08-01T00:57:20;3.80;;;2.97;;
21862;SDS011;11096;51.338;12.524;2022-08-01T00:59:46;4.38;;;3.83;;
21862;SDS011;11096;51.338;12.524;2022-08-01T01:02:11;5.60;;;3.58;;
21862;SDS011;11096;51.338;12.524;2022-08-01T01:04:37;5.97;;;3.53;;
21862;SDS011;11096;51.338;12.524;2022-08-01T01:10:12;6.53;;;3.50;;
21862;SDS011;11096;51.338;12.524;2022-08-01T01:12:52;4.43;;;3.78;;
21862;SDS011;11096;51.338;12.524;2022-08-01T01:18:03;3.95;;;3.58;;
21862;SDS011;11096;51.338;12.524;2022-08-01T01:20:34;4.32;;;3.28;;
21862;SDS011;11096;51.338;12.524;2022-08-01T01:23:10;4.10;;;3.38;;
21862;SDS011;11096;51.338;12.524;2022-08-01T01:28:49;4.90;;;3.47;;
21862;SDS011;11096;51.338;12.524;2022-08-01T01:31:15;4.78;;;3.20;;
21862;SDS011;11096;51.338;12.524;2022-08-01T01:33:47;4.93;;;3.47;;
21862;SDS011;11096;51.338;12.524;2022-08-01T01:36:15;4.15;;;3.17;;
21862;SDS011;11096;51.338;12.524;2022-08-01T01:38:44;8.30;;;3.78;;
21862;SDS011;11096;51.338;12.524;2022-08-01T01:41:11;6.00;;;3.28;;
21862;SDS011;11096;51.338;12.524;2022-08-01T01:43:39;6.97;;;3.28;;
21862;SDS011;11096;51.338;12.524;2022-08-01T01:46:05;4.68;;;3.72;;
21862;SDS011;11096;51.338;12.524;2022-08-01T01:48:34;5.10;;;3.38;;
21862;SDS011;11096;51.338;12.524;2022-08-01T01:51:01;3.50;;;3.00;;
21862;SDS011;11096;51.338;12.524;2022-08-01T01:53:28;5.95;;;3.17;;
21862;SDS011;11096;51.338;12.524;2022-08-01T01:55:57;4.05;;;3.20;;
21862;SDS011;11096;51.338;12.524;2022-08-01T01:58:24;4.82;;;2.95;;
21862;SDS011;11096;51.338;12.524;2022-08-01T02:00:52;4.05;;;3.10;;
21862;SDS011;11096;51.338;12.524;2022-08-01T02:03:18;10.07;;;3.78;;
21862;SDS011;11096;51.338;12.524;2022-08-01T02:05:44;5.53;;;2.90;;
21862;SDS011;11096;51.338;12.524;2022-08-01T02:08:12;7.50;;;3.40;;
21862;SDS011;11096;51.338;12.524;2022-08-01T02:10:40;4.78;;;3.13;;
21862;SDS011;11096;51.338;12.524;2022-08-01T02:13:26;6.47;;;3.50;;
21862;SDS011;11096;51.338;12.524;2022-08-01T02:15:52;6.90;;;3.40;;
21862;SDS011;11096;51.338;12.524;2022-08-01T02:18:18;3.55;;;3.22;;
21862;SDS011;11096;51.338;12.524;2022-08-01T02:20:43;3.97;;;3.20;;
21862;SDS011;11096;51.338;12.524;2022-08-01T02:23:11;3.65;;;2.80;;
21862;SDS011;11096;51.338;12.524;2022-08-01T02:25:44;3.38;;;3.08;;
21862;SDS011;11096;51.338;12.524;2022-08-01T02:28:13;4.57;;;3.20;;
21862;SDS011;11096;51.338;12.524;2022-08-01T02:30:47;4.80;;;3.30;;
21862;SDS011;11096;51.338;12.524;2022-08-01T02:33:16;6.78;;;3.50;;
21862;SDS011;11096;51.338;12.524;2022-08-01T02:35:43;4.63;;;3.17;;
21862;SDS011;11096;51.338;12.524;2022-08-01T02:38:12;5.45;;;3.10;;
21862;SDS011;11096;51.338;12.524;2022-08-01T02:40:41;4.68;;;3.20;;
21862;SDS011;11096;51.338;12.524;2022-08-01T02:43:08;3.53;;;2.88;;
21862;SDS011;11096;51.338;12.524;2022-08-01T02:45:37;5.60;;;2.90;;
21862;SDS011;11096;51.338;12.524;2022-08-01T02:48:11;5.57;;;3.22;;
21862;SDS011;11096;51.338;12.524;2022-08-01T02:50:38;3.92;;;3.20;;
21862;SDS011;11096;51.338;12.524;2022-08-01T02:53:06;6.25;;;3.50;;
21862;SDS011;11096;51.338;12.524;2022-08-01T02:55:35;3.83;;;3.10;;
21862;SDS011;11096;51.338;12.524;2022-08-01T02:58:03;3.53;;;3.20;;
21862;SDS011;11096;51.338;12.524;2022-08-01T03:00:30;7.18;;;3.17;;
21862;SDS011;11096;51.338;12.524;2022-08-01T03:02:57;5.60;;;3.40;;
21862;SDS011;11096;51.338;12.524;2022-08-01T03:05:24;3.80;;;3.20;;
21862;SDS011;11096;51.338;12.524;2022-08-01T03:07:52;4.28;;;3.25;;
21862;SDS011;11096;51.338;12.524;2022-08-01T03:10:18;5.65;;;3.28;;
21862;SDS011;11096;51.338;12.524;2022-08-01T03:12:45;5.93;;;3.40;;
21862;SDS011;11096;51.338;12.524;2022-08-01T03:15:13;4.38;;;3.25;;
21862;SDS011;11096;51.338;12.524;2022-08-01T03:17:40;6.78;;;3.30;;
21862;SDS011;11096;51.338;12.524;2022-08-01T03:20:10;3.67;;;3.25;;
21862;SDS011;11096;51.338;12.524;2022-08-01T03:22:37;6.07;;;3.20;;
21862;SDS011;11096;51.338;12.524;2022-08-01T03:25:06;3.70;;;2.97;;
21862;SDS011;11096;51.338;12.524;2022-08-01T03:27:33;3.75;;;2.65;;
21862;SDS011;11096;51.338;12.524;2022-08-01T03:30:03;5.63;;;3.50;;
21862;SDS011;11096;51.338;12.524;2022-08-01T03:32:30;3.70;;;2.85;;
21862;SDS011;11096;51.338;12.524;2022-08-01T03:34:56;4.22;;;2.88;;
21862;SDS011;11096;51.338;12.524;2022-08-01T03:37:29;5.32;;;2.58;;
21862;SDS011;11096;51.338;12.524;2022-08-01T03:40:05;3.10;;;2.60;;
21862;SDS011;11096;51.338;12.524;2022-08-01T03:42:35;2.60;;;2.20;;
21862;SDS011;11096;51.338;12.524;2022-08-01T03:45:07;3.03;;;2.13;;
21862;SDS011;11096;51.338;12.524;2022-08-01T03:47:35;4.47;;;2.50;;
21862;SDS011;11096;51.338;12.524;2022-08-01T03:50:02;3.28;;;2.70;;
21862;SDS011;11096;51.338;12.524;2022-08-01T03:52:30;3.65;;;2.53;;
21862;SDS011;11096;51.338;12.524;2022-08-01T03:54:58;4.80;;;2.38;;
21862;SDS011;11096;51.338;12.524;2022-08-01T03:57:27;2.50;;;2.13;;
21862;SDS011;11096;51.338;12.524;2022-08-01T03:59:55;2.53;;;2.30;;
21862;SDS011;11096;51.338;12.524;2022-08-01T04:02:21;2.65;;;2.22;;
21862;SDS011;11096;51.338;12.524;2022-08-01T04:04:47;4.85;;;2.22;;
21862;SDS011;11096;51.338;12.524;2022-08-01T04:07:23;3.67;;;2.22;;
21862;SDS011;11096;51.338;12.524;2022-08-01T04:09:50;2.53;;;2.25;;
21862;SDS011;11096;51.338;12.524;2022-08-01T04:12:15;3.58;;;2.20;;
21862;SDS011;11096;51.338;12.524;2022-08-01T04:14:41;4.70;;;2.08;;
21862;SDS011;11096;51.338;12.524;2022-08-01T04:17:06;2.70;;;2.50;;
21862;SDS011;11096;51.338;12.524;2022-08-01T04:19:31;3.70;;;2.28;;
21862;SDS011;11096;51.338;12.524;2022-08-01T04:21:57;2.63;;;2.42;;
21862;SDS011;11096;51.338;12.524;2022-08-01T04:24:22;2.70;;;2.50;;
21862;SDS011;11096;51.338;12.524;2022-08-01T04:26:50;4.20;;;2.25;;
21862;SDS011;11096;51.338;12.524;2022-08-01T04:29:17;2.97;;;2.60;;
21862;SDS011;11096;51.338;12.524;2022-08-01T04:31:45;3.25;;;2.80;;
21862;SDS011;11096;51.338;12.524;2022-08-01T04:34:14;3.78;;;2.13;;
21862;SDS011;11096;51.338;12.524;2022-08-01T04:36:42;3.25;;;2.40;;
21862;SDS011;11096;51.338;12.524;2022-08-01T04:39:09;3.90;;;2.80;;
21862;SDS011;11096;51.338;12.524;2022-08-01T04:41:36;5.43;;;2.58;;
21862;SDS011;11096;51.338;12.524;2022-08-01T04:44:02;3.45;;;2.30;;
21862;SDS011;11096;51.338;12.524;2022-08-01T04:46:28;3.78;;;2.28;;
21862;SDS011;11096;51.338;12.524;2022-08-01T04:48:54;5.18;;;2.65;;
21862;SDS011;11096;51.338;12.524;2022-08-01T04:51:21;2.38;;;2.03;;
21862;SDS011;11096;51.338;12.524;2022-08-01T04:53:49;3.85;;;2.40;;
21862;SDS011;11096;51.338;12.524;2022-08-01T04:56:18;2.33;;;1.90;;
21862;SDS011;11096;51.338;12.524;2022-08-01T04:58:45;3.55;;;2.40;;
21862;SDS011;11096;51.338;12.524;2022-08-01T05:01:12;3.20;;;2.28;;
21862;SDS011;11096;51.338;12.524;2022-08-01T05:03:38;3.60;;;2.50;;
21862;SDS011;11096;51.338;12.524;2022-08-01T05:06:04;5.97;;;2.55;;
21862;SDS011;11096;51.338;12.524;2022-08-01T05:08:30;5.43;;;2.20;;
21862;SDS011;11096;51.338;12.524;2022-08-01T05:10:55;3.28;;;2.17;;
21862;SDS011;11096;51.338;12.524;2022-08-01T05:13:21;3.20;;;2.40;;
21862;SDS011;11096;51.338;12.524;2022-08-01T05:15:46;4.43;;;2.50;;
21862;SDS011;11096;51.338;12.524;2022-08-01T05:18:11;2.95;;;1.95;;
21862;SDS011;11096;51.338;12.524;2022-08-01T05:20:37;2.95;;;2.00;;
21862;SDS011;11096;51.338;12.524;2022-08-01T05:23:03;2.47;;;2.00;;
21862;SDS011;11096;51.338;12.524;2022-08-01T05:25:29;2.47;;;2.15;;
21862;SDS011;11096;51.338;12.524;2022-08-01T05:27:55;3.08;;;2.08;;
21862;SDS011;11096;51.338;12.524;2022-08-01T05:30:20;5.22;;;2.17;;
21862;SDS011;11096;51.338;12.524;2022-08-01T05:32:45;2.47;;;1.92;;
21862;SDS011;11096;51.338;12.524;2022-08-01T05:35:11;3.58;;;2.28;;
21862;SDS011;11096;51.338;12.524;2022-08-01T05:37:36;2.55;;;1.80;;
21862;SDS011;11096;51.338;12.524;2022-08-01T05:40:02;4.07;;;2.38;;
21862;SDS011;11096;51.338;12.524;2022-08-01T05:42:28;1.90;;;1.80;;
21862;SDS011;11096;51.338;12.524;2022-08-01T05:44:53;5.85;;;2.05;;
21862;SDS011;11096;51.338;12.524;2022-08-01T05:47:18;1.70;;;1.60;;
21862;SDS011;11096;51.338;12.524;2022-08-01T05:49:44;5.82;;;2.42;;
21862;SDS011;11096;51.338;12.524;2022-08-01T05:52:10;2.15;;;1.95;;
21862;SDS011;11096;51.338;12.524;2022-08-01T05:54:36;3.38;;;2.00;;
21862;SDS011;11096;51.338;12.524;2022-08-01T05:57:01;4.35;;;2.00;;
21862;SDS011;11096;51.338;12.524;2022-08-01T05:59:28;2.90;;;1.88;;
21862;SDS011;11096;51.338;12.524;2022-08-01T06:01:53;2.42;;;1.95;;
21862;SDS011;11096;51.338;12.524;2022-08-01T06:04:19;3.17;;;2.08;;
21862;SDS011;11096;51.338;12.524;2022-08-01T06:06:44;3.15;;;1.90;;
21862;SDS011;11096;51.338;12.524;2022-08-01T06:09:09;2.03;;;1.73;;
21862;SDS011;11096;51.338;12.524;2022-08-01T06:11:35;1.95;;;1.25;;
21862;SDS011;11096;51.338;12.524;2022-08-01T06:14:00;2.35;;;1.73;;
21862;SDS011;11096;51.338;12.524;2022-08-01T06:16:25;5.78;;;1.45;;
21862;SDS011;11096;51.338;12.524;2022-08-01T06:18:51;3.13;;;1.80;;
21862;SDS011;11096;51.338;12.524;2022-08-01T06:21:16;4.13;;;1.90;;
21862;SDS011;11096;51.338;12.524;2022-08-01T06:23:41;5.80;;;1.75;;
21862;SDS011;11096;51.338;12.524;2022-08-01T06:26:07;2.28;;;1.75;;
21862;SDS011;11096;51.338;12.524;2022-08-01T06:28:33;3.17;;;1.52;;
21862;SDS011;11096;51.338;12.524;2022-08-01T06:30:58;2.95;;;1.88;;
21862;SDS011;11096;51.338;12.524;2022-08-01T06:33:24;2.83;;;1.55;;
21862;SDS011;11096;51.338;12.524;2022-08-01T06:35:50;2.22;;;1.88;;
21862;SDS011;11096;51.338;12.524;2022-08-01T06:38:15;2.83;;;2.50;;
21862;SDS011;11096;51.338;12.524;2022-08-01T06:40:41;4.43;;;3.05;;
21862;SDS011;11096;51.338;12.524;2022-08-01T06:43:06;5.35;;;3.28;;
21862;SDS011;11096;51.338;12.524;2022-08-01T06:45:32;8.13;;;3.95;;
21862;SDS011;11096;51.338;12.524;2022-08-01T06:47:58;5.13;;;4.47;;
21862;SDS011;11096;51.338;12.524;2022-08-01T06:50:23;4.53;;;4.13;;
21862;SDS011;11096;51.338;12.524;2022-08-01T06:52:48;4.28;;;2.67;;
21862;SDS011;11096;51.338;12.524;2022-08-01T06:55:15;3.38;;;2.35;;
21862;SDS011;11096;51.338;12.524;2022-08-01T06:57:47;2.13;;;1.83;;
21862;SDS011;11096;51.338;12.524;2022-08-01T07:00:15;2.42;;;1.80;;
21862;SDS011;11096;51.338;12.524;2022-08-01T07:02:43;2.50;;;1.33;;
21862;SDS011;11096;51.338;12.524;2022-08-01T07:05:09;1.88;;;1.60;;
21862;SDS011;11096;51.338;12.524;2022-08-01T07:07:34;3.05;;;1.70;;
21862;SDS011;11096;51.338;12.524;2022-08-01T07:10:00;2.58;;;1.50;;
21862;SDS011;11096;51.338;12.524;2022-08-01T07:12:25;1.88;;;1.40;;
21862;SDS011;11096;51.338;12.524;2022-08-01T07:14:51;3.47;;;1.52;;
21862;SDS011;11096;51.338;12.524;2022-08-01T07:17:16;2.25;;;1.40;;
21862;SDS011;11096;51.338;12.524;2022-08-01T07:19:41;1.95;;;1.23;;
21862;SDS011;11096;51.338;12.524;2022-08-01T07:22:07;3.38;;;1.40;;
21862;SDS011;11096;51.338;12.524;2022-08-01T07:24:32;1.77;;;1.20;;
21862;SDS011;11096;51.338;12.524;2022-08-01T07:26:58;2.72;;;1.33;;
21862;SDS011;11096;51.338;12.524;2022-08-01T07:29:23;1.58;;;1.40;;
21862;SDS011;11096;51.338;12.524;2022-08-01T07:31:53;1.50;;;1.40;;
21862;SDS011;11096;51.338;12.524;2022-08-01T07:34:21;1.45;;;1.30;;
21862;SDS011;11096;51.338;12.524;2022-08-01T07:36:47;1.40;;;1.30;;
21862;SDS011;11096;51.338;12.524;2022-08-01T07:39:13;2.97;;;1.30;;
21862;SDS011;11096;51.338;12.524;2022-08-01T07:41:38;4.22;;;1.50;;
21862;SDS011;11096;51.338;12.524;2022-08-01T07:44:03;1.88;;;1.20;;
21862;SDS011;11096;51.338;12.524;2022-08-01T07:46:29;1.45;;;1.15;;
21862;SDS011;11096;51.338;12.524;2022-08-01T07:48:55;1.27;;;1.17;;
21862;SDS011;11096;51.338;12.524;2022-08-01T07:51:21;1.58;;;0.90;;
21862;SDS011;11096;51.338;12.524;2022-08-01T07:53:47;1.38;;;0.73;;
21862;SDS011;11096;51.338;12.524;2022-08-01T07:56:12;1.33;;;0.75;;
21862;SDS011;11096;51.338;12.524;2022-08-01T07:58:37;2.83;;;0.88;;
21862;SDS011;11096;51.338;12.524;2022-08-01T08:01:03;3.65;;;0.80;;
21862;SDS011;11096;51.338;12.524;2022-08-01T08:03:28;1.25;;;0.80;;
21862;SDS011;11096;51.338;12.524;2022-08-01T08:05:53;2.13;;;1.10;;
21862;SDS011;11096;51.338;12.524;2022-08-01T08:08:19;4.68;;;1.02;;
21862;SDS011;11096;51.338;12.524;2022-08-01T08:10:44;2.55;;;1.10;;
21862;SDS011;11096;51.338;12.524;2022-08-01T08:13:10;1.90;;;1.10;;
21862;SDS011;11096;51.338;12.524;2022-08-01T08:15:35;2.03;;;0.95;;
21862;SDS011;11096;51.338;12.524;2022-08-01T08:18:02;1.70;;;1.00;;
21862;SDS011;11096;51.338;12.524;2022-08-01T08:20:28;3.42;;;0.90;;
21862;SDS011;11096;51.338;12.524;2022-08-01T08:22:54;1.30;;;1.10;;
21862;SDS011;11096;51.338;12.524;2022-08-01T08:25:21;1.17;;;1.00;;
21862;SDS011;11096;51.338;12.524;2022-08-01T08:27:47;1.05;;;0.77;;
21862;SDS011;11096;51.338;12.524;2022-08-01T08:30:13;1.25;;;0.70;;
21862;SDS011;11096;51.338;12.524;2022-08-01T08:32:38;1.67;;;0.98;;
21862;SDS011;11096;51.338;12.524;2022-08-01T08:35:04;0.70;;;0.70;;
21862;SDS011;11096;51.338;12.524;2022-08-01T08:37:31;1.15;;;0.70;;
21862;SDS011;11096;51.338;12.524;2022-08-01T08:39:56;1.25;;;0.40;;
21862;SDS011;11096;51.338;12.524;2022-08-01T08:42:22;1.58;;;0.30;;
21862;SDS011;11096;51.338;12.524;2022-08-01T08:44:47;1.98;;;0.38;;
21862;SDS011;11096;51.338;12.524;2022-08-01T08:47:13;1.65;;;0.40;;
21862;SDS011;11096;51.338;12.524;2022-08-01T08:49:39;0.93;;;0.40;;
21862;SDS011;11096;51.338;12.524;2022-08-01T08:52:08;0.25;;;0.20;;
21862;SDS011;11096;51.338;12.524;2022-08-01T08:54:35;0.52;;;0.30;;
21862;SDS011;11096;51.338;12.524;2022-08-01T08:57:03;0.93;;;0.30;;
21862;SDS011;11096;51.338;12.524;2022-08-01T08:59:29;3.28;;;0.30;;
21862;SDS011;11096;51.338;12.524;2022-08-01T09:01:56;1.83;;;0.30;;
21862;SDS011;11096;51.338;12.524;2022-08-01T09:04:22;0.68;;;0.40;;
21862;SDS011;11096;51.338;12.524;2022-08-01T09:06:48;0.70;;;0.40;;
21862;SDS011;11096;51.338;12.524;2022-08-01T09:09:14;1.38;;;0.60;;
21862;SDS011;11096;51.338;12.524;2022-08-01T09:11:39;0.40;;;0.38;;
21862;SDS011;11096;51.338;12.524;2022-08-01T09:14:06;1.30;;;0.60;;
21862;SDS011;11096;51.338;12.524;2022-08-01T09:16:32;1.02;;;0.57;;
21862;SDS011;11096;51.338;12.524;2022-08-01T09:19:08;0.98;;;0.60;;
21862;SDS011;11096;51.338;12.524;2022-08-01T09:22:00;0.50;;;0.40;;
21862;SDS011;11096;51.338;12.524;2022-08-01T09:24:28;0.60;;;0.40;;
21862;SDS011;11096;51.338;12.524;2022-08-01T09:26:55;1.10;;;0.40;;
21862;SDS011;11096;51.338;12.524;2022-08-01T09:29:22;0.55;;;0.40;;
21862;SDS011;11096;51.338;12.524;2022-08-01T09:31:49;0.40;;;0.40;;
21862;SDS011;11096;51.338;12.524;2022-08-01T09:34:16;0.63;;;0.47;;
21862;SDS011;11096;51.338;12.524;2022-08-01T09:36:53;4.25;;;0.70;;
21862;SDS011;11096;51.338;12.524;2022-08-01T09:39:31;1.05;;;0.30;;
21862;SDS011;11096;51.338;12.524;2022-08-01T09:42:00;0.38;;;0.32;;
21862;SDS011;11096;51.338;12.524;2022-08-01T09:44:45;0.40;;;0.30;;
21862;SDS011;11096;51.338;12.524;2022-08-01T09:47:11;0.35;;;0.20;;
21862;SDS011;11096;51.338;12.524;2022-08-01T09:49:38;1.38;;;0.20;;
21862;SDS011;11096;51.338;12.524;2022-08-01T09:52:11;1.45;;;0.35;;
21862;SDS011;11096;51.338;12.524;2022-08-01T09:54:38;1.05;;;0.55;;
21862;SDS011;11096;51.338;12.524;2022-08-01T09:57:09;0.73;;;0.43;;
21862;SDS011;11096;51.338;12.524;2022-08-01T09:59:40;1.05;;;0.35;;
21862;SDS011;11096;51.338;12.524;2022-08-01T10:02:10;0.75;;;0.20;;
21862;SDS011;11096;51.338;12.524;2022-08-01T10:04:45;0.70;;;0.50;;
21862;SDS011;11096;51.338;12.524;2022-08-01T10:07:11;0.60;;;0.45;;
21862;SDS011;11096;51.338;12.524;2022-08-01T10:09:39;1.63;;;0.50;;
21862;SDS011;11096;51.338;12.524;2022-08-01T10:12:04;1.40;;;0.35;;
21862;SDS011;11096;51.338;12.524;2022-08-01T10:14:30;1.17;;;0.57;;
21862;SDS011;11096;51.338;12.524;2022-08-01T10:16:57;0.43;;;0.40;;
21862;SDS011;11096;51.338;12.524;2022-08-01T10:19:25;0.20;;;0.20;;
21862;SDS011;11096;51.338;12.524;2022-08-01T10:21:52;0.20;;;0.20;;
21862;SDS011;11096;51.338;12.524;2022-08-01T10:24:21;1.27;;;0.40;;
21862;SDS011;11096;51.338;12.524;2022-08-01T10:26:49;0.10;;;0.10;;
21862;SDS011;11096;51.338;12.524;2022-08-01T10:29:17;0.22;;;0.22;;
21862;SDS011;11096;51.338;12.524;2022-08-01T10:31:46;1.85;;;0.32;;
21862;SDS011;11096;51.338;12.524;2022-08-01T10:34:12;2.08;;;0.22;;
21862;SDS011;11096;51.338;12.524;2022-08-01T10:36:40;0.50;;;0.20;;
21862;SDS011;11096;51.338;12.524;2022-08-01T10:39:07;2.63;;;0.20;;
21862;SDS011;11096;51.338;12.524;2022-08-01T10:41:35;0.85;;;0.20;;
21862;SDS011;11096;51.338;12.524;2022-08-01T10:44:02;0.50;;;0.20;;
21862;SDS011;11096;51.338;12.524;2022-08-01T10:46:29;0.13;;;0.13;;
21862;SDS011;11096;51.338;12.524;2022-08-01T10:49:01;0.50;;;0.20;;
21862;SDS011;11096;51.338;12.524;2022-08-01T10:51:29;0.47;;;0.20;;
21862;SDS011;11096;51.338;12.524;2022-08-01T10:53:56;2.47;;;0.38;;
21862;SDS011;11096;51.338;12.524;2022-08-01T10:56:22;2.63;;;0.50;;
21862;SDS011;11096;51.338;12.524;2022-08-01T10:58:48;2.03;;;0.38;;
21862;SDS011;11096;51.338;12.524;2022-08-01T11:03:40;0.40;;;0.30;;
21862;SDS011;11096;51.338;12.524;2022-08-01T11:06:14;3.85;;;0.30;;
21862;SDS011;11096;51.338;12.524;2022-08-01T11:08:41;1.45;;;0.60;;
21862;SDS011;11096;51.338;12.524;2022-08-01T11:11:15;3.30;;;0.40;;
21862;SDS011;11096;51.338;12.524;2022-08-01T11:16:45;0.95;;;0.50;;
21862;SDS011;11096;51.338;12.524;2022-08-01T11:19:10;2.83;;;0.68;;
21862;SDS011;11096;51.338;12.524;2022-08-01T11:25:02;1.48;;;0.55;;
21862;SDS011;11096;51.338;12.524;2022-08-01T11:32:52;4.72;;;0.80;;
21862;SDS011;11096;51.338;12.524;2022-08-01T11:35:20;1.80;;;1.08;;
21862;SDS011;11096;51.338;12.524;2022-08-01T11:37:48;0.82;;;0.77;;
21862;SDS011;11096;51.338;12.524;2022-08-01T11:40:14;2.50;;;0.70;;
21862;SDS011;11096;51.338;12.524;2022-08-01T11:42:43;0.95;;;0.82;;
21862;SDS011;11096;51.338;12.524;2022-08-01T11:45:09;0.50;;;0.50;;
21862;SDS011;11096;51.338;12.524;2022-08-01T11:47:45;1.30;;;0.70;;
21862;SDS011;11096;51.338;12.524;2022-08-01T11:50:31;0.77;;;0.73;;
21862;SDS011;11096;51.338;12.524;2022-08-01T11:53:01;1.27;;;0.60;;
21862;SDS011;11096;51.338;12.524;2022-08-01T11:55:29;1.88;;;0.55;;
21862;SDS011;11096;51.338;12.524;2022-08-01T11:58:02;2.28;;;0.93;;
21862;SDS011;11096;51.338;12.524;2022-08-01T12:00:31;1.08;;;0.90;;
21862;SDS011;11096;51.338;12.524;2022-08-01T12:02:58;1.08;;;0.93;;
21862;SDS011;11096;51.338;12.524;2022-08-01T12:05:28;0.80;;;0.77;;
21862;SDS011;11096;51.338;12.524;2022-08-01T12:07:55;1.58;;;0.88;;
21862;SDS011;11096;51.338;12.524;2022-08-01T12:10:25;3.05;;;1.20;;
21862;SDS011;11096;51.338;12.524;2022-08-01T12:12:55;2.80;;;1.08;;
21862;SDS011;11096;51.338;12.524;2022-08-01T12:15:24;5.53;;;1.10;;
21862;SDS011;11096;51.338;12.524;2022-08-01T12:17:58;1.67;;;1.13;;
21862;SDS011;11096;51.338;12.524;2022-08-01T12:20:26;0.93;;;0.80;;
21862;SDS011;11096;51.338;12.524;2022-08-01T12:22:54;2.05;;;1.00;;
21862;SDS011;11096;51.338;12.524;2022-08-01T12:25:19;2.28;;;0.60;;
21862;SDS011;11096;51.338;12.524;2022-08-01T12:27:45;2.70;;;0.50;;
21862;SDS011;11096;51.338;12.524;2022-08-01T12:30:16;2.40;;;0.70;;
21862;SDS011;11096;51.338;12.524;2022-08-01T12:32:44;1.30;;;0.70;;
21862;SDS011;11096;51.338;12.524;2022-08-01T12:35:12;0.65;;;0.65;;
21862;SDS011;11096;51.338;12.524;2022-08-01T12:37:43;0.68;;;0.40;;
21862;SDS011;11096;51.338;12.524;2022-08-01T12:42:46;1.65;;;0.55;;
21862;SDS011;11096;51.338;12.524;2022-08-01T12:45:35;3.13;;;0.50;;
21862;SDS011;11096;51.338;12.524;2022-08-01T12:48:07;1.58;;;0.60;;
21862;SDS011;11096;51.338;12.524;2022-08-01T12:50:36;0.75;;;0.50;;
21862;SDS011;11096;51.338;12.524;2022-08-01T12:53:03;0.70;;;0.70;;
21862;SDS011;11096;51.338;12.524;2022-08-01T12:55:28;0.98;;;0.40;;
21862;SDS011;11096;51.338;12.524;2022-08-01T12:58:09;0.40;;;0.40;;
21862;SDS011;11096;51.338;12.524;2022-08-01T13:00:37;1.33;;;0.40;;
21862;SDS011;11096;51.338;12.524;2022-08-01T13:03:05;3.03;;;0.28;;
21862;SDS011;11096;51.338;12.524;2022-08-01T13:08:49;0.75;;;0.40;;
21862;SDS011;11096;51.338;12.524;2022-08-01T13:11:01;0.30;;;0.30;;
21862;SDS011;11096;51.338;12.524;2022-08-01T13:13:40;0.90;;;0.40;;
21862;SDS011;11096;51.338;12.524;2022-08-01T13:16:06;2.97;;;0.30;;
21862;SDS011;11096;51.338;12.524;2022-08-01T13:18:33;0.80;;;0.20;;
21862;SDS011;11096;51.338;12.524;2022-08-01T13:23:35;0.40;;;0.30;;
21862;SDS011;11096;51.338;12.524;2022-08-01T13:26:01;0.50;;;0.50;;
21862;SDS011;11096;51.338;12.524;2022-08-01T13:28:26;0.60;;;0.40;;
21862;SDS011;11096;51.338;12.524;2022-08-01T13:33:25;0.43;;;0.30;;
21862;SDS011;11096;51.338;12.524;2022-08-01T13:35:53;0.57;;;0.20;;
21862;SDS011;11096;51.338;12.524;2022-08-01T13:38:19;2.30;;;0.50;;
21862;SDS011;11096;51.338;12.524;2022-08-01T13:41:05;0.60;;;0.40;;
21862;SDS011;11096;51.338;12.524;2022-08-01T13:43:31;0.80;;;0.30;;
21862;SDS011;11096;51.338;12.524;2022-08-01T13:45:56;3.70;;;0.50;;
21862;SDS011;11096;51.338;12.524;2022-08-01T13:48:22;0.82;;;0.30;;
21862;SDS011;11096;51.338;12.524;2022-08-01T13:50:48;0.75;;;0.38;;
21862;SDS011;11096;51.338;12.524;2022-08-01T13:53:13;2.60;;;0.52;;
21862;SDS011;11096;51.338;12.524;2022-08-01T13:55:38;0.20;;;0.20;;
21862;SDS011;11096;51.338;12.524;2022-08-01T13:58:04;1.95;;;0.20;;
21862;SDS011;11096;51.338;12.524;2022-08-01T14:00:30;0.47;;;0.10;;
21862;SDS011;11096;51.338;12.524;2022-08-01T14:02:55;2.97;;;0.38;;
21862;SDS011;11096;51.338;12.524;2022-08-01T14:05:20;0.60;;;0.20;;
21862;SDS011;11096;51.338;12.524;2022-08-01T14:07:46;1.95;;;0.28;;
21862;SDS011;11096;51.338;12.524;2022-08-01T14:10:11;0.70;;;0.22;;
21862;SDS011;11096;51.338;12.524;2022-08-01T14:12:36;0.40;;;0.40;;
21862;SDS011;11096;51.338;12.524;2022-08-01T14:15:02;1.25;;;0.47;;
21862;SDS011;11096;51.338;12.524;2022-08-01T14:17:27;1.77;;;0.40;;
21862;SDS011;11096;51.338;12.524;2022-08-01T14:19:53;0.65;;;0.40;;
21862;SDS011;11096;51.338;12.524;2022-08-01T14:22:18;1.67;;;0.47;;
21862;SDS011;11096;51.338;12.524;2022-08-01T14:24:44;0.70;;;0.60;;
21862;SDS011;11096;51.338;12.524;2022-08-01T14:27:09;0.80;;;0.50;;
21862;SDS011;11096;51.338;12.524;2022-08-01T14:29:35;4.03;;;0.50;;
21862;SDS011;11096;51.338;12.524;2022-08-01T14:32:00;0.43;;;0.40;;
21862;SDS011;11096;51.338;12.524;2022-08-01T14:34:25;1.13;;;0.55;;
21862;SDS011;11096;51.338;12.524;2022-08-01T14:36:51;1.08;;;0.50;;
21862;SDS011;11096;51.338;12.524;2022-08-01T14:39:18;2.22;;;0.70;;
21862;SDS011;11096;51.338;12.524;2022-08-01T14:41:43;1.00;;;0.40;;
21862;SDS011;11096;51.338;12.524;2022-08-01T14:44:08;1.38;;;0.50;;
21862;SDS011;11096;51.338;12.524;2022-08-01T14:46:34;0.60;;;0.60;;
21862;SDS011;11096;51.338;12.524;2022-08-01T14:48:59;1.85;;;0.45;;
21862;SDS011;11096;51.338;12.524;2022-08-01T14:51:25;1.00;;;0.73;;
21862;SDS011;11096;51.338;12.524;2022-08-01T14:53:50;2.67;;;0.60;;
21862;SDS011;11096;51.338;12.524;2022-08-01T14:56:16;1.50;;;0.73;;
21862;SDS011;11096;51.338;12.524;2022-08-01T14:58:42;1.17;;;0.65;;
21862;SDS011;11096;51.338;12.524;2022-08-01T15:01:07;0.85;;;0.60;;
21862;SDS011;11096;51.338;12.524;2022-08-01T15:03:32;0.68;;;0.35;;
21862;SDS011;11096;51.338;12.524;2022-08-01T15:05:58;0.90;;;0.50;;
21862;SDS011;11096;51.338;12.524;2022-08-01T15:08:23;2.65;;;0.60;;